createdAt,value
2019-04-22T00:04:32.288Z,16.70
2019-04-22T00:07:11.788Z,16.70
2019-04-22T00:14:42.568Z,16.60
2019-04-22T00:17:23.482Z,16.60
2019-04-22T00:19:52.037Z,16.60
2019-04-22T00:22:26.141Z,16.60
2019-04-22T00:24:47.414Z,16.60
2019-04-22T00:27:20.201Z,16.50
2019-04-22T00:34:53.501Z,16.40
2019-04-22T00:37:30.528Z,16.40
2019-04-22T00:39:57.778Z,16.40
2019-04-22T00:42:27.474Z,16.30
2019-04-22T00:50:14.510Z,16.20
2019-04-22T00:52:28.247Z,16.10
2019-04-22T00:57:47.467Z,16.10
2019-04-22T01:10:26.440Z,16.00
2019-04-22T01:12:51.531Z,15.90
2019-04-22T01:17:52.884Z,15.90
2019-04-22T01:27:46.279Z,15.70
2019-04-22T01:32:35.013Z,15.60
2019-04-22T01:35:12.968Z,15.60
2019-04-22T01:47:55.176Z,15.50
2019-04-22T01:53:00.902Z,15.40
2019-04-22T02:00:18.031Z,15.40
2019-04-22T02:15:23.800Z,15.10
2019-04-22T02:25:41.207Z,15.00
2019-04-22T02:28:24.032Z,15.00
2019-04-22T02:43:26.107Z,14.80
2019-04-22T02:46:10.662Z,14.70
2019-04-22T02:53:41.857Z,14.70
2019-04-22T02:55:54.744Z,14.70
2019-04-22T02:58:35.366Z,14.60
2019-04-22T03:13:35.581Z,14.50
2019-04-22T03:15:59.585Z,14.50
2019-04-22T03:28:30.888Z,14.30
2019-04-22T03:33:55.103Z,14.20
2019-04-22T03:45:51.680Z,14.00
2019-04-22T03:48:26.245Z,14.00
2019-04-22T04:10:55.677Z,13.90
2019-04-22T04:31:00.588Z,13.80
2019-04-22T04:33:40.691Z,13.80
2019-04-22T04:36:02.622Z,13.80
2019-04-22T04:38:43.438Z,13.80
2019-04-22T04:51:16.271Z,14.00
2019-04-22T05:13:39.489Z,14.50
2019-04-22T05:21:11.290Z,14.80
2019-04-22T05:31:01.110Z,15.10
2019-04-22T05:43:27.248Z,15.40
2019-04-22T05:46:00.733Z,15.50
2019-04-22T05:48:35.440Z,15.60
2019-04-22T05:50:59.443Z,15.70
2019-04-22T05:53:28.884Z,15.80
2019-04-22T06:01:36.534Z,16.10
2019-04-22T06:03:44.641Z,16.20
2019-04-22T06:06:12.626Z,16.30
2019-04-22T06:08:42.525Z,16.40
2019-04-22T06:13:31.947Z,16.60
2019-04-22T06:18:38.547Z,16.90
2019-04-22T06:23:46.352Z,17.10
2019-04-22T06:26:19.432Z,17.20
2019-04-22T06:28:51.867Z,17.30
2019-04-22T06:31:23.050Z,17.30
2019-04-22T06:33:48.558Z,17.50
2019-04-22T06:36:15.769Z,17.50
2019-04-22T06:39:05.139Z,17.70
2019-04-22T06:41:22.498Z,17.70
2019-04-22T06:43:56.205Z,17.80
2019-04-22T06:46:20.821Z,17.90
2019-04-22T06:48:48.974Z,18.10
2019-04-22T06:51:22.752Z,18.20
2019-04-22T06:53:48.147Z,18.30
2019-04-22T06:56:16.206Z,18.40
2019-04-22T07:06:37.001Z,18.80
2019-04-22T07:11:14.224Z,18.90
2019-04-22T07:13:48.571Z,19.10
2019-04-22T07:18:48.458Z,19.20
2019-04-22T07:21:20.977Z,19.30
2019-04-22T07:24:03.025Z,19.40
2019-04-22T07:26:20.488Z,19.40
2019-04-22T07:28:49.037Z,19.40
2019-04-22T07:31:20.511Z,19.50
2019-04-22T07:33:51.854Z,19.60
2019-04-22T07:36:35.352Z,19.80
2019-04-22T07:38:50.753Z,19.90
2019-04-22T07:41:25.572Z,19.90
2019-04-22T07:44:07.725Z,20.00
2019-04-22T07:46:18.622Z,20.20
2019-04-22T07:48:53.064Z,20.20
2019-04-22T07:51:41.069Z,20.20
2019-04-22T07:53:56.123Z,20.30
2019-04-22T07:56:24.233Z,20.40
2019-04-22T07:58:55.652Z,20.50
2019-04-22T08:01:29.612Z,20.50
2019-04-22T08:04:16.071Z,20.60
2019-04-22T08:06:24.637Z,20.90
2019-04-22T08:13:53.283Z,21.20
2019-04-22T08:19:18.752Z,21.20
2019-04-22T08:21:21.990Z,21.30
2019-04-22T08:23:56.874Z,21.40
2019-04-22T08:28:59.306Z,17.80
2019-04-22T08:31:32.015Z,21.60
2019-04-22T08:34:05.007Z,21.70
2019-04-22T08:39:13.608Z,21.80
2019-04-22T08:41:37.125Z,21.80
2019-04-22T08:46:41.012Z,22.00
2019-04-22T08:54:13.854Z,22.30
2019-04-22T08:56:35.206Z,22.40
2019-04-22T08:59:07.935Z,22.50
2019-04-22T09:04:02.389Z,22.70
2019-04-22T09:06:46.791Z,22.80
2019-04-22T09:09:02.116Z,23.00
2019-04-22T09:11:35.593Z,23.10
2019-04-22T09:14:01.657Z,23.30
2019-04-22T09:16:39.653Z,23.30
2019-04-22T09:19:10.836Z,23.30
2019-04-22T09:26:36.050Z,23.30
2019-04-22T09:29:14.556Z,23.50
2019-04-22T09:31:35.914Z,23.60
2019-04-22T09:34:06.444Z,23.70
2019-04-22T09:39:09.057Z,23.90
2019-04-22T09:41:45.205Z,24.00
2019-04-22T09:44:24.655Z,24.10
2019-04-22T09:46:41.256Z,24.10
2019-04-22T09:49:11.918Z,24.10
2019-04-22T09:51:37.375Z,24.20
2019-04-22T09:54:16.897Z,24.20
2019-04-22T09:59:13.955Z,24.20
2019-04-22T10:01:49.032Z,24.20
2019-04-22T10:04:27.576Z,24.30
2019-04-22T10:11:43.655Z,24.80
2019-04-22T10:14:30.977Z,24.80
2019-04-22T10:16:51.423Z,24.90
2019-04-22T10:19:18.402Z,24.90
2019-04-22T10:21:57.356Z,25.00
2019-04-22T10:24:13.720Z,25.00
2019-04-22T10:26:44.127Z,25.00
2019-04-22T10:29:19.602Z,25.00
2019-04-22T10:31:52.772Z,25.10
2019-04-22T10:34:07.158Z,25.20
2019-04-22T10:36:23.685Z,25.30
2019-04-22T10:38:52.615Z,25.40
2019-04-22T10:41:22.862Z,25.50
2019-04-22T10:43:52.847Z,25.50
2019-04-22T10:46:22.169Z,25.60
2019-04-22T10:48:52.641Z,25.70
2019-04-22T10:51:22.340Z,25.80
2019-04-22T10:53:51.335Z,25.90
2019-04-22T10:56:21.022Z,26.00
2019-04-22T10:58:50.821Z,26.10
2019-04-22T11:01:21.090Z,26.10
2019-04-22T11:03:51.118Z,26.20
2019-04-22T11:06:21.203Z,26.20
2019-04-22T11:08:54.392Z,26.20
2019-04-22T11:11:32.531Z,26.20
2019-04-22T11:13:51.789Z,26.20
2019-04-22T11:16:21.434Z,26.30
2019-04-22T11:18:51.575Z,26.50
2019-04-22T11:21:20.332Z,26.60
2019-04-22T11:23:50.258Z,26.60
2019-04-22T11:26:19.868Z,26.80
2019-04-22T11:28:49.645Z,27.10
2019-04-22T11:31:18.756Z,27.20
2019-04-22T11:33:48.388Z,27.40
2019-04-22T11:36:17.750Z,27.50
2019-04-22T11:38:55.268Z,27.90
2019-04-22T11:41:16.873Z,28.00
2019-04-22T11:43:45.445Z,28.30
2019-04-22T11:46:15.535Z,28.50
2019-04-22T11:48:45.513Z,28.70
2019-04-22T11:51:15.829Z,28.80
2019-04-22T11:53:45.088Z,28.90
2019-04-22T11:56:13.759Z,29.10
2019-04-22T11:58:42.670Z,29.10
2019-04-22T12:01:12.769Z,29.10
2019-04-22T12:03:41.968Z,29.10
2019-04-22T12:06:10.635Z,29.20
2019-04-22T12:08:39.694Z,29.30
2019-04-22T12:11:09.821Z,29.30
2019-04-22T12:13:39.900Z,29.40
2019-04-22T12:16:09.423Z,29.40
2019-04-22T12:18:39.507Z,29.40
2019-04-22T12:21:08.950Z,29.40
2019-04-22T12:23:39.165Z,29.40
2019-04-22T12:26:13.088Z,31.10
2019-04-22T12:28:39.254Z,33.20
2019-04-22T12:31:09.430Z,36.30
2019-04-22T12:33:39.283Z,38.70
2019-04-22T12:36:10.915Z,40.90
2019-04-22T12:38:41.696Z,42.80
2019-04-22T12:41:12.234Z,44.30
2019-04-22T12:43:43.096Z,45.50
2019-04-22T12:46:12.175Z,45.60
2019-04-22T12:48:41.233Z,47.20
2019-04-22T12:51:11.044Z,47.50
2019-04-22T12:53:40.133Z,48.50
2019-04-22T12:56:09.266Z,49.40
2019-04-22T12:58:38.095Z,50.40
2019-04-22T13:01:08.667Z,50.50
2019-04-22T13:03:38.290Z,51.10
2019-04-22T13:06:07.862Z,51.60
2019-04-22T13:08:38.093Z,51.80
2019-04-22T13:11:12.172Z,52.00
2019-04-22T13:13:38.739Z,52.50
2019-04-22T13:16:08.900Z,53.00
2019-04-22T13:18:47.309Z,52.80
2019-04-22T13:21:08.800Z,52.90
2019-04-22T13:23:38.936Z,53.10
2019-04-22T13:26:07.693Z,53.40
2019-04-22T13:28:36.781Z,53.90
2019-04-22T13:31:07.786Z,54.00
2019-04-22T13:33:36.954Z,54.30
2019-04-22T13:36:06.116Z,54.60
2019-04-22T13:38:35.371Z,54.90
2019-04-22T13:41:18.522Z,55.10
2019-04-22T13:43:36.608Z,55.70
2019-04-22T13:46:06.072Z,55.90
2019-04-22T13:49:02.039Z,56.30
2019-04-22T13:51:36.368Z,56.50
2019-04-22T13:54:37.307Z,56.80
2019-04-22T13:56:28.422Z,57.00
2019-04-22T13:58:54.058Z,57.20
2019-04-22T14:01:13.322Z,57.40
2019-04-22T14:04:04.897Z,57.80
2019-04-22T14:06:34.701Z,57.90
2019-04-22T14:09:05.301Z,57.50
2019-04-22T14:11:41.651Z,57.50
2019-04-22T14:14:05.177Z,57.80
2019-04-22T14:16:35.491Z,58.20
2019-04-22T14:19:05.671Z,58.50
2019-04-22T14:21:34.960Z,58.90
2019-04-22T14:24:04.924Z,59.00
2019-04-22T14:26:45.221Z,58.80
2019-04-22T14:29:05.887Z,58.80
2019-04-22T14:31:36.065Z,59.00
2019-04-22T14:34:07.392Z,59.00
2019-04-22T14:36:36.949Z,58.90
2019-04-22T14:39:08.502Z,59.20
2019-04-22T14:41:54.788Z,59.30
2019-04-22T14:45:12.001Z,59.50
2019-04-22T14:47:11.255Z,59.50
2019-04-22T14:49:28.589Z,59.40
2019-04-22T14:52:07.997Z,59.30
2019-04-22T14:54:28.410Z,59.20
2019-04-22T14:56:42.211Z,59.20
2019-04-22T14:59:11.367Z,59.00
2019-04-22T15:01:41.568Z,59.10
2019-04-22T15:04:10.981Z,59.10
2019-04-22T15:06:40.412Z,59.00
2019-04-22T15:09:10.427Z,58.90
2019-04-22T15:11:52.822Z,59.00
2019-04-22T15:14:09.886Z,59.10
2019-04-22T15:16:40.359Z,58.00
2019-04-22T15:19:11.728Z,59.10
2019-04-22T15:21:40.921Z,59.20
2019-04-22T15:24:26.920Z,58.40
2019-04-22T15:26:58.551Z,59.00
2019-04-22T15:29:27.724Z,58.70
2019-04-22T15:31:57.661Z,58.70
2019-04-22T15:34:28.197Z,58.60
2019-04-22T15:36:58.055Z,58.50
2019-04-22T15:39:27.337Z,58.30
2019-04-22T15:42:06.534Z,58.30
2019-04-22T15:44:27.960Z,58.50
2019-04-22T15:46:57.406Z,58.60
2019-04-22T15:49:27.744Z,58.50
2019-04-22T15:51:58.883Z,58.20
2019-04-22T15:54:27.778Z,57.70
2019-04-22T15:56:56.904Z,56.50
2019-04-22T15:59:45.057Z,56.90
2019-04-22T16:02:00.062Z,57.00
2019-04-22T16:04:28.413Z,56.90
2019-04-22T16:06:58.955Z,56.60
2019-04-22T16:09:29.018Z,56.30
2019-04-22T16:12:10.996Z,56.30
2019-04-22T16:14:35.144Z,56.50
2019-04-22T16:16:59.234Z,56.40
2019-04-22T16:19:28.085Z,56.30
2019-04-22T16:22:05.010Z,53.40
2019-04-22T16:24:29.837Z,56.30
2019-04-22T16:27:00.477Z,56.00
2019-04-22T16:29:29.794Z,55.90
2019-04-22T16:31:58.943Z,55.90
2019-04-22T16:34:29.281Z,55.50
2019-04-22T16:36:58.721Z,54.90
2019-04-22T16:39:28.531Z,54.30
2019-04-22T16:41:57.434Z,53.90
2019-04-22T16:44:26.804Z,53.60
2019-04-22T16:46:55.599Z,53.50
2019-04-22T16:49:25.496Z,52.80
2019-04-22T16:51:54.313Z,52.60
2019-04-22T16:54:24.229Z,52.00
2019-04-22T16:56:54.214Z,51.50
2019-04-22T16:59:22.812Z,51.30
2019-04-22T17:02:01.755Z,51.10
2019-04-22T17:04:50.835Z,50.70
2019-04-22T17:07:20.410Z,50.40
2019-04-22T17:09:50.056Z,46.90
2019-04-22T17:12:19.630Z,49.60
2019-04-22T17:14:55.910Z,48.70
2019-04-22T17:17:20.209Z,47.60
2019-04-22T17:19:51.363Z,46.40
2019-04-22T17:22:20.117Z,45.20
2019-04-22T17:24:49.910Z,42.70
2019-04-22T17:27:18.514Z,38.10
2019-04-22T17:29:48.268Z,35.80
2019-04-22T17:32:19.009Z,33.80
2019-04-22T17:37:23.753Z,31.00
2019-04-22T17:40:04.351Z,29.90
2019-04-22T17:45:18.545Z,28.30
2019-04-22T17:47:36.916Z,28.30
2019-04-22T17:50:22.988Z,27.40
2019-04-22T17:52:51.188Z,27.00
2019-04-22T17:55:12.854Z,26.50
2019-04-22T17:57:40.999Z,26.10
2019-04-22T18:00:14.578Z,25.60
2019-04-22T18:02:43.014Z,25.40
2019-04-22T18:05:02.001Z,25.20
2019-04-22T18:08:03.802Z,24.80
2019-04-22T18:12:50.084Z,24.40
2019-04-22T18:15:18.866Z,24.10
2019-04-22T18:17:58.847Z,23.80
2019-04-22T18:20:17.528Z,23.30
2019-04-22T18:22:39.613Z,23.10
2019-04-22T18:25:13.008Z,22.90
2019-04-22T18:28:00.710Z,22.80
2019-04-22T18:30:14.901Z,22.60
2019-04-22T18:32:52.185Z,22.40
2019-04-22T18:35:22.988Z,22.20
2019-04-22T18:40:18.570Z,21.80
2019-04-22T18:50:31.005Z,21.30
2019-04-22T18:53:04.959Z,21.10
2019-04-22T18:55:26.507Z,21.00
2019-04-22T19:00:23.329Z,20.80
2019-04-22T19:08:18.682Z,20.60
2019-04-22T19:13:48.982Z,20.40
2019-04-22T19:25:42.140Z,20.00
2019-04-22T19:33:22.273Z,19.80
2019-04-22T19:38:10.876Z,19.60
2019-04-22T19:53:37.028Z,19.20
2019-04-22T20:00:53.618Z,19.00
2019-04-22T20:38:59.590Z,18.40
2019-04-22T20:51:47.541Z,18.10
2019-04-22T20:59:04.581Z,18.00
2019-04-22T21:01:35.685Z,17.90
2019-04-22T21:03:51.828Z,17.90
2019-04-22T21:09:08.883Z,17.70
2019-04-22T21:11:34.036Z,17.70
2019-04-22T21:14:02.379Z,17.70
2019-04-22T21:16:38.264Z,17.60
2019-04-22T21:21:41.385Z,17.50
2019-04-22T21:23:59.663Z,17.50
2019-04-22T21:26:35.286Z,17.40
2019-04-22T21:29:07.114Z,17.30
2019-04-22T21:36:43.100Z,17.10
2019-04-22T21:39:08.238Z,17.10
2019-04-22T21:41:37.536Z,17.00
2019-04-22T21:46:42.620Z,16.90
2019-04-22T21:49:12.859Z,16.80
2019-04-22T21:57:08.972Z,16.70
2019-04-22T21:59:29.897Z,16.60
2019-04-22T22:02:05.620Z,16.60
2019-04-22T22:04:25.118Z,16.50
2019-04-22T22:06:50.146Z,16.50
2019-04-22T22:19:28.501Z,16.30
2019-04-22T22:22:05.984Z,16.30
2019-04-22T22:24:36.553Z,16.20
2019-04-22T22:44:18.254Z,15.80
2019-04-22T22:46:58.890Z,15.80
2019-04-22T22:49:32.996Z,15.80
2019-04-22T22:52:29.307Z,15.80
2019-04-22T22:54:34.501Z,15.70
2019-04-22T22:59:37.245Z,15.60
2019-04-22T23:02:00.246Z,15.60
2019-04-22T23:09:34.530Z,15.50
2019-04-22T23:12:17.519Z,15.50
2019-04-22T23:14:36.743Z,15.50
2019-04-22T23:21:49.369Z,15.40
2019-04-22T23:27:03.203Z,15.30
2019-04-22T23:29:32.394Z,15.30
2019-04-22T23:35:04.833Z,15.30
2019-04-22T23:55:23.118Z,15.00
